Shrewsbury, New Jersey
Current Conditions -  °F | °C
As of 6:15 PM on Wednesday 17 Dec 2014 (Local Time) from KBLM Reporting Station
Overcast Overcast  
Wind Chill: 40°   Ceiling: 4700
Heat Index: 46°   Visibility: 10mi
Dew Point: 28°   Wind: 15mph
Humidity: 50%   Direction: 280°W
Pressure: 29.9"   Gusts: 22mph
Location:  40.33°N, 74.06°W
Report Text: KBLM 172315Z AUTO 28013G19KT 10SM OVC047 08/M02 A2990 RMK AO1
Loading
Personal Weather Stations






























Interactive Weather Map New forecast layout! Learn more

10-Day Weather Forecast

Advertisements
Track Severe Weather on mobile